Time;durP1;ratioP1;P1;durP2;ratioP2;P2;SDS_P1;SDS_P2;PMS_P1;PMS_P2;Temp;Humidity;BMP_temperature;BMP_pressure;BME280_temperature;BME280_humidity;BME280_pressure;Samples;Min_cycle;Max_cycle;Signal;HPM_P1;HPM_P2
2023/11/08 00:00:27;;;;;;;8.30;2.80;;;11.90;99.90;;;;;;5055410;28;20033;-80
2023/11/08 00:03:04;;;;;;;4.60;2.35;;;11.80;99.90;;;;;;5055471;28;20095;-79
2023/11/08 00:05:31;;;;;;;6.13;2.35;;;11.80;99.90;;;;;;5055160;28;20032;-80
2023/11/08 00:08:06;;;;;;;7.63;2.25;;;11.70;99.90;;;;;;5055276;28;20136;-80
2023/11/08 00:10:43;;;;;;;4.60;1.95;;;11.70;99.90;;;;;;5053821;28;20036;-79
2023/11/08 00:13:40;;;;;;;3.25;2.05;;;11.60;99.90;;;;;;5055441;28;20444;-77
2023/11/08 00:16:07;;;;;;;4.78;1.95;;;11.60;99.90;;;;;;4984893;28;20030;-80
2023/11/08 00:18:36;;;;;;;4.38;1.80;;;11.70;99.90;;;;;;5055397;28;20045;-79
2023/11/08 00:21:20;;;;;;;3.50;1.58;;;11.60;99.90;;;;;;5055455;28;20049;-79
2023/11/08 00:23:49;;;;;;;4.40;1.63;;;11.50;99.90;;;;;;5055044;28;20032;-79
2023/11/08 00:26:39;;;;;;;5.55;1.40;;;11.50;99.90;;;;;;5054777;28;20095;-80
2023/11/08 00:29:07;;;;;;;4.68;1.65;;;11.40;99.90;;;;;;5054641;28;20096;-80
2023/11/08 00:31:34;;;;;;;4.05;2.00;;;11.40;99.90;;;;;;5054026;28;20033;-79
2023/11/08 00:34:00;;;;;;;2.88;1.33;;;11.40;99.90;;;;;;5054787;28;20041;-79
2023/11/08 00:36:29;;;;;;;4.47;1.60;;;11.40;99.90;;;;;;5055248;28;20061;-78
2023/11/08 00:39:07;;;;;;;4.93;1.48;;;11.40;99.90;;;;;;5054853;28;20036;-79
2023/11/08 00:41:44;;;;;;;;;;;;;;;;;;;;;
2023/11/08 00:44:11;;;;;;;4.15;1.70;;;11.30;99.90;;;;;;5053651;28;20031;-79
2023/11/08 00:46:37;;;;;;;3.80;1.67;;;11.30;99.90;;;;;;5054553;28;20100;-79
2023/11/08 00:49:03;;;;;;;5.68;1.70;;;11.30;99.90;;;;;;5054454;28;20112;-80
2023/11/08 00:51:30;;;;;;;3.88;2.08;;;11.30;99.90;;;;;;5053878;28;20104;-79
2023/11/08 00:53:56;;;;;;;2.65;1.83;;;11.30;99.90;;;;;;5053968;28;20041;-80
2023/11/08 00:56:22;;;;;;;7.07;2.38;;;11.30;99.90;;;;;;5052975;28;20029;-80
2023/11/08 00:58:48;;;;;;;6.60;2.80;;;11.20;99.90;;;;;;5054260;28;20033;-80
2023/11/08 01:01:14;;;;;;;6.05;2.20;;;11.20;99.90;;;;;;5054294;28;20065;-80
2023/11/08 01:03:39;;;;;;;5.10;1.90;;;11.20;99.90;;;;;;5053938;28;20037;-79
2023/11/08 01:06:05;;;;;;;3.38;1.77;;;11.20;99.90;;;;;;5054032;28;20052;-79
2023/11/08 01:08:31;;;;;;;5.25;2.47;;;11.20;99.90;;;;;;5054260;28;20041;-78
2023/11/08 01:10:57;;;;;;;3.15;1.48;;;11.20;99.90;;;;;;5054383;28;20029;-80
2023/11/08 01:13:24;;;;;;;4.97;2.10;;;11.20;99.90;;;;;;5054115;28;20044;-81
2023/11/08 01:15:50;;;;;;;6.97;1.73;;;11.20;99.90;;;;;;5052603;28;20069;-80
2023/11/08 01:18:16;;;;;;;3.60;1.70;;;11.20;99.90;;;;;;5053692;28;20493;-80
2023/11/08 01:20:42;;;;;;;3.72;1.50;;;11.20;99.90;;;;;;5053880;28;20052;-80
2023/11/08 01:23:09;;;;;;;3.45;1.48;;;11.30;99.90;;;;;;5053915;28;20090;-80
2023/11/08 01:25:35;;;;;;;2.90;1.33;;;11.30;99.90;;;;;;5055584;28;20041;-80
2023/11/08 01:28:01;;;;;;;6.18;2.22;;;11.20;99.90;;;;;;5054514;28;20527;-81
2023/11/08 01:30:27;;;;;;;5.45;1.38;;;11.20;99.90;;;;;;5053993;28;20089;-80
2023/11/08 01:32:55;;;;;;;4.97;1.48;;;11.20;99.90;;;;;;5054276;28;20033;-79
2023/11/08 01:35:24;;;;;;;3.03;1.05;;;11.20;99.90;;;;;;5053467;28;20495;-79
2023/11/08 01:38:10;;;;;;;4.68;1.27;;;11.20;99.90;;;;;;5052926;28;20044;-79
2023/11/08 01:40:59;;;;;;;3.03;0.95;;;11.20;99.90;;;;;;5053928;28;20029;-79
2023/11/08 01:43:59;;;;;;;2.25;1.10;;;11.20;99.90;;;;;;5053213;28;20052;-79
2023/11/08 01:46:44;;;;;;;2.85;1.02;;;11.20;99.90;;;;;;5032600;28;20107;-79
2023/11/08 01:49:19;;;;;;;2.33;1.35;;;11.10;99.90;;;;;;5053131;28;20440;-79
2023/11/08 01:51:49;;;;;;;2.00;1.00;;;11.20;99.90;;;;;;5053086;28;20072;-80
2023/11/08 01:54:27;;;;;;;6.82;1.42;;;11.20;99.90;;;;;;5052673;28;20401;-80
2023/11/08 01:56:54;;;;;;;2.63;1.30;;;11.20;99.90;;;;;;5053353;28;20040;-80
2023/11/08 01:59:24;;;;;;;2.53;1.23;;;11.20;99.90;;;;;;5050927;28;20032;-81
2023/11/08 02:01:59;;;;;;;3.25;1.30;;;11.10;99.90;;;;;;5051431;28;20131;-77
2023/11/08 02:04:31;;;;;;;2.28;1.10;;;11.10;99.90;;;;;;5051001;28;20041;-78
2023/11/08 02:07:00;;;;;;;5.00;1.30;;;11.10;99.90;;;;;;5052750;28;20041;-80
2023/11/08 02:09:26;;;;;;;2.97;1.30;;;11.10;99.90;;;;;;5053281;28;20125;-79
2023/11/08 02:11:52;;;;;;;5.82;1.33;;;11.10;99.90;;;;;;5053201;28;20060;-80
2023/11/08 02:14:18;;;;;;;5.47;1.13;;;10.90;99.90;;;;;;5053019;28;20056;-80
2023/11/08 02:16:47;;;;;;;3.13;1.20;;;10.90;99.90;;;;;;5053261;28;20116;-76
2023/11/08 02:19:13;;;;;;;3.03;1.23;;;10.90;99.90;;;;;;5053085;28;20388;-79
2023/11/08 02:21:39;;;;;;;2.03;1.23;;;11.00;99.90;;;;;;5050964;28;20041;-80
2023/11/08 02:24:23;;;;;;;2.78;1.73;;;11.00;99.90;;;;;;5052315;28;20116;-78
2023/11/08 02:26:49;;;;;;;2.85;1.42;;;11.00;99.90;;;;;;5052858;28;20029;-80
2023/11/08 02:29:17;;;;;;;2.58;1.00;;;11.00;99.90;;;;;;5052498;28;20064;-80
2023/11/08 02:31:43;;;;;;;2.45;1.20;;;11.10;99.90;;;;;;5052479;28;20044;-80
2023/11/08 02:34:09;;;;;;;3.83;1.10;;;11.10;99.90;;;;;;5051644;28;20119;-80
2023/11/08 02:36:36;;;;;;;5.97;1.30;;;11.10;99.90;;;;;;5052541;28;20111;-78
2023/11/08 02:39:03;;;;;;;2.75;1.08;;;11.00;99.90;;;;;;5052448;28;20511;-78
2023/11/08 02:41:31;;;;;;;5.05;1.10;;;11.10;99.90;;;;;;5052502;28;20029;-80
2023/11/08 02:43:57;;;;;;;2.03;1.23;;;11.10;99.90;;;;;;5051882;28;20029;-78
2023/11/08 02:46:22;;;;;;;4.55;1.23;;;11.10;99.90;;;;;;5052309;28;20712;-80
2023/11/08 02:48:48;;;;;;;3.00;1.25;;;11.10;99.90;;;;;;5052644;28;20104;-79
2023/11/08 02:51:14;;;;;;;5.10;1.20;;;11.10;99.90;;;;;;5052661;28;20037;-80
2023/11/08 02:53:40;;;;;;;6.93;1.40;;;11.00;99.90;;;;;;5052294;28;20086;-77
2023/11/08 02:56:07;;;;;;;4.80;1.52;;;11.10;99.90;;;;;;5052423;28;20044;-80
2023/11/08 02:58:34;;;;;;;2.95;1.13;;;11.10;99.90;;;;;;5051239;28;20059;-79
2023/11/08 03:01:00;;;;;;;4.25;1.30;;;11.10;99.90;;;;;;5051891;28;20473;-78
2023/11/08 03:03:27;;;;;;;2.63;0.98;;;11.10;99.90;;;;;;5052301;28;20041;-79
2023/11/08 03:05:52;;;;;;;3.70;1.55;;;11.10;99.90;;;;;;5052543;28;20033;-80
2023/11/08 03:08:18;;;;;;;2.92;1.40;;;11.10;99.90;;;;;;5058143;28;20511;-80
2023/11/08 03:10:44;;;;;;;2.95;1.30;;;11.10;99.90;;;;;;5056782;28;20065;-79
2023/11/08 03:13:10;;;;;;;3.53;1.25;;;11.10;99.90;;;;;;5056357;28;20055;-80
2023/11/08 03:15:36;;;;;;;4.68;1.10;;;11.10;99.90;;;;;;5056699;28;20021;-79
2023/11/08 03:18:21;;;;;;;6.65;1.48;;;11.10;99.90;;;;;;5056502;28;20029;-79
2023/11/08 03:20:56;;;;;;;5.57;1.30;;;11.10;99.90;;;;;;5056872;28;20025;-78
2023/11/08 03:23:31;;;;;;;4.00;1.35;;;11.10;99.90;;;;;;5056676;28;20464;-79
2023/11/08 03:25:59;;;;;;;5.97;1.35;;;11.10;99.90;;;;;;5056720;28;20036;-80
2023/11/08 03:28:25;;;;;;;4.35;1.23;;;11.10;99.90;;;;;;5056563;28;20041;-79
2023/11/08 03:30:51;;;;;;;5.97;1.70;;;11.20;99.90;;;;;;5056359;28;20029;-80
2023/11/08 03:33:18;;;;;;;3.88;1.55;;;11.10;99.90;;;;;;5056427;28;20091;-79
2023/11/08 03:35:47;;;;;;;4.32;1.70;;;10.90;99.90;;;;;;5056267;28;20041;-80
2023/11/08 03:38:22;;;;;;;4.90;2.20;;;10.90;99.90;;;;;;5056205;28;20025;-80
2023/11/08 03:40:57;;;;;;;6.88;2.08;;;10.90;99.90;;;;;;5056832;28;20041;-79
2023/11/08 03:43:24;;;;;;;3.90;2.03;;;10.80;99.90;;;;;;5056573;28;20063;-79
2023/11/08 03:45:52;;;;;;;7.55;2.17;;;10.70;99.90;;;;;;5038186;28;20044;-79
2023/11/08 03:48:18;;;;;;;8.20;2.35;;;;;;;;;;5055690;28;20106;-78
2023/11/08 03:50:45;;;;;;;6.63;2.03;;;10.60;99.90;;;;;;5055741;28;20043;-79
2023/11/08 03:53:11;;;;;;;7.78;2.00;;;10.60;99.90;;;;;;5055771;28;20037;-79
2023/11/08 03:55:38;;;;;;;4.75;2.20;;;10.70;99.90;;;;;;5055212;28;20402;-79
2023/11/08 03:58:04;;;;;;;2.67;1.42;;;10.60;99.90;;;;;;5056371;28;20123;-79
2023/11/08 04:00:58;;;;;;;3.85;1.45;;;10.60;99.90;;;;;;5055753;28;20025;-79
2023/11/08 04:03:24;;;;;;;2.08;1.10;;;10.70;99.90;;;;;;5055615;28;20486;-80
2023/11/08 04:05:52;;;;;;;5.45;2.08;;;10.70;99.90;;;;;;5055269;28;20405;-79
2023/11/08 04:08:18;;;;;;;4.80;1.33;;;10.70;99.90;;;;;;5037423;28;20498;-80
2023/11/08 04:10:43;;;;;;;6.53;1.38;;;10.70;99.90;;;;;;5055129;28;20029;-80
2023/11/08 04:13:09;;;;;;;1.80;1.17;;;10.70;99.90;;;;;;5055293;28;20029;-80
2023/11/08 04:15:35;;;;;;;2.80;1.60;;;10.70;99.90;;;;;;5037655;28;20037;-77
2023/11/08 04:18:01;;;;;;;3.55;1.60;;;10.70;99.90;;;;;;5053534;28;20040;-79
2023/11/08 04:20:26;;;;;;;6.20;1.73;;;10.70;99.90;;;;;;5054785;28;20025;-79
2023/11/08 04:22:52;;;;;;;7.63;1.60;;;10.70;99.90;;;;;;5054629;28;20072;-79
2023/11/08 04:25:18;;;;;;;3.03;1.40;;;10.70;99.90;;;;;;5054791;28;20029;-79
2023/11/08 04:27:44;;;;;;;3.17;1.30;;;10.70;99.90;;;;;;5054861;28;20071;-80
2023/11/08 04:30:11;;;;;;;4.60;1.30;;;10.70;99.90;;;;;;5054970;28;20036;-79
2023/11/08 04:32:37;;;;;;;7.22;2.45;;;10.70;99.90;;;;;;5054858;28;20039;-78
2023/11/08 04:35:03;;;;;;;8.25;2.63;;;10.70;99.90;;;;;;5054904;28;20045;-79
2023/11/08 04:37:30;;;;;;;6.40;2.42;;;10.70;99.90;;;;;;5055095;28;20111;-79
2023/11/08 04:39:56;;;;;;;4.55;2.42;;;10.60;99.90;;;;;;5054609;28;20044;-79
2023/11/08 04:42:21;;;;;;;3.50;1.60;;;10.60;99.90;;;;;;5054855;28;20033;-80
2023/11/08 04:44:48;;;;;;;3.75;1.17;;;10.50;99.90;;;;;;5054654;28;20037;-79
2023/11/08 04:47:18;;;;;;;3.80;1.42;;;10.50;99.90;;;;;;5054387;28;20148;-80
2023/11/08 04:49:50;;;;;;;2.70;1.52;;;10.50;99.90;;;;;;5056114;28;20036;-79
2023/11/08 04:52:20;;;;;;;3.65;1.75;;;10.50;99.90;;;;;;5055412;28;20083;-80
2023/11/08 04:54:47;;;;;;;6.60;1.70;;;10.50;99.90;;;;;;5053905;28;20044;-80
2023/11/08 04:57:16;;;;;;;3.55;1.48;;;10.50;99.90;;;;;;5055101;28;20033;-79
2023/11/08 04:59:49;;;;;;;3.03;1.50;;;10.50;99.90;;;;;;5055062;28;20423;-79
2023/11/08 05:02:16;;;;;;;5.88;1.88;;;10.50;99.90;;;;;;5055047;28;20388;-79
2023/11/08 05:04:46;;;;;;;3.83;1.40;;;10.50;99.90;;;;;;5054567;28;20029;-80
2023/11/08 05:07:13;;;;;;;4.45;1.50;;;10.50;99.90;;;;;;5054709;28;20036;-79
2023/11/08 05:09:43;;;;;;;5.70;1.70;;;10.50;99.90;;;;;;5054547;28;20108;-79
2023/11/08 05:12:13;;;;;;;2.78;1.40;;;10.50;99.90;;;;;;5054523;28;20376;-79
2023/11/08 05:14:46;;;;;;;5.85;1.92;;;10.50;99.90;;;;;;5054359;28;20040;-79
2023/11/08 05:17:11;;;;;;;3.95;1.60;;;10.60;99.90;;;;;;5054196;28;20156;-79
2023/11/08 05:19:37;;;;;;;5.88;1.42;;;10.60;99.90;;;;;;5054173;28;20429;-77
2023/11/08 05:22:04;;;;;;;5.40;1.90;;;10.60;99.90;;;;;;5054512;28;20108;-80
2023/11/08 05:24:30;;;;;;;6.18;2.13;;;10.50;99.90;;;;;;5055020;28;20033;-79
2023/11/08 05:27:22;;;;;;;2.88;1.60;;;10.50;99.90;;;;;;5053956;28;20025;-79
2023/11/08 05:29:48;;;;;;;4.82;1.15;;;10.50;99.90;;;;;;5053600;28;20064;-79
2023/11/08 05:32:17;;;;;;;4.50;1.30;;;10.60;99.90;;;;;;5054216;28;20477;-79
2023/11/08 05:34:43;;;;;;;3.13;1.50;;;10.60;99.90;;;;;;5053324;28;20049;-80
2023/11/08 05:37:10;;;;;;;6.40;1.63;;;10.50;99.90;;;;;;5053329;28;20108;-79
2023/11/08 05:39:36;;;;;;;3.22;1.40;;;10.50;99.90;;;;;;5053509;28;20037;-79
2023/11/08 05:42:02;;;;;;;3.60;1.50;;;10.50;99.90;;;;;;5054794;28;20041;-75
2023/11/08 05:44:31;;;;;;;6.00;1.60;;;10.50;99.90;;;;;;5053362;28;20029;-79
2023/11/08 05:46:57;;;;;;;9.25;1.65;;;10.50;99.90;;;;;;5053664;28;20037;-78
2023/11/08 05:49:23;;;;;;;2.92;1.65;;;10.50;99.90;;;;;;5053473;28;20037;-80
2023/11/08 05:51:49;;;;;;;5.43;2.45;;;10.40;99.90;;;;;;5053209;28;20554;-80
2023/11/08 05:54:16;;;;;;;7.55;2.78;;;10.40;99.90;;;;;;5053364;28;20044;-79
2023/11/08 05:56:42;;;;;;;8.70;2.88;;;10.40;99.90;;;;;;5053337;28;20086;-78
2023/11/08 05:59:08;;;;;;;7.72;3.30;;;10.40;99.90;;;;;;5051608;28;20045;-80
2023/11/08 06:01:34;;;;;;;7.60;3.65;;;;;;;;;;5053266;28;20029;-80
2023/11/08 06:04:00;;;;;;;10.25;3.65;;;10.40;99.90;;;;;;5052772;28;20688;-79
2023/11/08 06:06:27;;;;;;;12.95;4.88;;;10.30;99.90;;;;;;5051677;28;20392;-80
2023/11/08 06:08:53;;;;;;;13.05;3.95;;;10.30;99.90;;;;;;5052402;28;20055;-80
2023/11/08 06:11:19;;;;;;;11.25;3.03;;;10.20;99.90;;;;;;5052892;28;20033;-80
2023/11/08 06:13:45;;;;;;;5.55;3.00;;;10.20;99.90;;;;;;5053244;28;20445;-79
2023/11/08 06:16:11;;;;;;;6.05;2.63;;;10.30;99.90;;;;;;5053353;28;20535;-79
2023/11/08 06:18:38;;;;;;;4.75;2.47;;;10.20;99.90;;;;;;5052908;28;20064;-78
2023/11/08 06:21:04;;;;;;;6.43;2.85;;;10.20;99.90;;;;;;5052932;28;20440;-79
2023/11/08 06:23:30;;;;;;;6.95;3.20;;;10.20;99.90;;;;;;5052729;28;20495;-78
2023/11/08 06:25:56;;;;;;;11.45;3.00;;;10.20;99.90;;;;;;5052007;28;20033;-78
2023/11/08 06:28:22;;;;;;;11.18;2.78;;;10.20;99.90;;;;;;5052320;28;20572;-80
2023/11/08 06:30:48;;;;;;;8.00;3.50;;;10.20;99.90;;;;;;5052646;28;20100;-76
2023/11/08 06:33:14;;;;;;;10.55;3.42;;;10.20;99.90;;;;;;5053322;28;20106;-77
2023/11/08 06:35:41;;;;;;;11.75;3.65;;;10.20;99.90;;;;;;5053296;28;20477;-89
2023/11/08 06:38:07;;;;;;;5.57;3.60;;;10.20;99.90;;;;;;5053673;28;20396;-82
2023/11/08 06:40:33;;;;;;;6.60;3.50;;;10.20;99.90;;;;;;5053637;28;20094;-82
2023/11/08 06:43:02;;;;;;;6.40;3.67;;;10.20;99.90;;;;;;5056687;28;20121;-80
2023/11/08 06:45:28;;;;;;;13.75;4.20;;;10.20;99.90;;;;;;5057409;28;20036;-82
2023/11/08 06:47:54;;;;;;;6.93;3.53;;;10.20;99.90;;;;;;5057147;28;20409;-79
2023/11/08 06:50:24;;;;;;;9.48;3.45;;;10.20;99.90;;;;;;5066279;28;20036;-81
2023/11/08 06:52:50;;;;;;;6.78;3.95;;;10.20;99.90;;;;;;5076883;28;20067;-79
2023/11/08 06:55:21;;;;;;;7.30;3.25;;;10.20;99.90;;;;;;5077031;28;20037;-80
2023/11/08 06:57:57;;;;;;;6.22;3.70;;;10.30;99.90;;;;;;5076700;28;20036;-78
2023/11/08 07:00:24;;;;;;;6.55;3.72;;;10.30;99.90;;;;;;5076757;28;20373;-80
2023/11/08 07:02:49;;;;;;;8.15;3.90;;;10.40;99.90;;;;;;5077232;28;20033;-80
2023/11/08 07:05:16;;;;;;;9.93;4.00;;;10.40;99.90;;;;;;5077011;28;20377;-80
2023/11/08 07:07:44;;;;;;;9.75;4.70;;;10.50;99.90;;;;;;5077436;28;20185;-79
2023/11/08 07:10:11;;;;;;;10.35;3.80;;;10.60;99.90;;;;;;5076774;28;20028;-80
2023/11/08 07:12:38;;;;;;;14.63;4.50;;;10.60;99.90;;;;;;5076360;28;20040;-80
2023/11/08 07:15:05;;;;;;;6.72;4.32;;;10.70;99.90;;;;;;5076552;28;20054;-80
2023/11/08 07:17:30;;;;;;;6.75;4.00;;;10.70;99.90;;;;;;5076552;28;20427;-79
2023/11/08 07:19:57;;;;;;;9.15;3.92;;;10.70;99.90;;;;;;5075858;28;20064;-79
2023/11/08 07:22:26;;;;;;;6.50;3.90;;;10.80;99.90;;;;;;5076201;28;20086;-78
2023/11/08 07:24:52;;;;;;;8.40;3.92;;;10.80;99.90;;;;;;5075831;28;20071;-75
2023/11/08 07:27:18;;;;;;;8.68;3.22;;;10.80;99.90;;;;;;5075887;28;20091;-74
2023/11/08 07:29:47;;;;;;;5.75;3.17;;;10.90;99.90;;;;;;5075531;28;20028;-78
2023/11/08 07:32:14;;;;;;;4.82;2.65;;;10.90;99.90;;;;;;5075848;28;20060;-79
2023/11/08 07:34:43;;;;;;;6.20;2.40;;;11.00;99.90;;;;;;5055902;28;20051;-74
2023/11/08 07:37:09;;;;;;;10.52;3.08;;;11.00;99.90;;;;;;5075124;28;20074;-72
2023/11/08 07:39:35;;;;;;;7.60;1.98;;;11.00;99.90;;;;;;5067185;28;20025;-73
2023/11/08 07:42:02;;;;;;;7.10;2.60;;;11.10;99.90;;;;;;5054895;28;20042;-73
2023/11/08 07:44:30;;;;;;;8.73;2.45;;;11.00;99.90;;;;;;5054724;28;20029;-74
2023/11/08 07:46:56;;;;;;;7.88;2.55;;;11.00;99.90;;;;;;5054520;28;20462;-71
2023/11/08 07:49:23;;;;;;;12.45;2.90;;;11.00;99.90;;;;;;5054512;28;20033;-72
2023/11/08 07:51:48;;;;;;;5.55;2.95;;;11.00;99.90;;;;;;5054934;28;20037;-72
2023/11/08 07:54:14;;;;;;;5.55;2.47;;;11.10;99.90;;;;;;5053696;28;20451;-70
2023/11/08 07:56:40;;;;;;;9.98;2.53;;;11.20;99.90;;;;;;5054317;28;20032;-71
2023/11/08 07:59:05;;;;;;;8.40;2.50;;;11.20;99.90;;;;;;5054349;28;20048;-76
2023/11/08 08:01:31;;;;;;;8.38;3.38;;;11.20;99.90;;;;;;5054695;28;20036;-72
2023/11/08 08:03:57;;;;;;;8.93;2.10;;;11.30;99.90;;;;;;5054709;28;20116;-71
2023/11/08 08:06:24;;;;;;;5.15;2.30;;;11.40;99.90;;;;;;5054433;28;20485;-74
2023/11/08 08:08:50;;;;;;;8.32;2.80;;;11.40;99.90;;;;;;5053222;28;20400;-74
2023/11/08 08:11:17;;;;;;;7.28;3.40;;;11.40;99.90;;;;;;5054314;28;20033;-75
2023/11/08 08:13:45;;;;;;;9.32;3.85;;;11.50;99.90;;;;;;5054406;28;20037;-72
2023/11/08 08:16:12;;;;;;;9.73;2.45;;;11.50;99.90;;;;;;5054533;28;20032;-72
2023/11/08 08:18:38;;;;;;;11.85;2.65;;;11.60;99.90;;;;;;5037253;28;20227;-71
2023/11/08 08:21:04;;;;;;;5.13;2.72;;;11.60;99.90;;;;;;5054928;28;20096;-72
2023/11/08 08:23:30;;;;;;;9.98;3.42;;;11.60;99.90;;;;;;5054462;28;20060;-72
2023/11/08 08:25:57;;;;;;;479.60;24.17;;;11.70;99.90;;;;;;5054653;28;20056;-71
2023/11/08 08:28:23;;;;;;;11.35;2.80;;;11.70;99.90;;;;;;5054999;28;20076;-72
2023/11/08 08:30:57;;;;;;;12.43;4.30;;;11.80;99.90;;;;;;5054816;28;20025;-72
2023/11/08 08:33:23;;;;;;;24.85;6.72;;;11.80;99.90;;;;;;5054465;28;20044;-73
2023/11/08 08:35:50;;;;;;;49.20;6.40;;;11.90;99.90;;;;;;5054712;28;20041;-73
2023/11/08 08:38:15;;;;;;;35.72;8.25;;;11.90;99.90;;;;;;5054164;28;20132;-72
2023/11/08 08:40:41;;;;;;;10.60;3.10;;;12.00;99.90;;;;;;5054101;28;20037;-72
2023/11/08 08:43:08;;;;;;;7.70;2.50;;;12.00;99.90;;;;;;5054454;28;20496;-73
2023/11/08 08:45:36;;;;;;;6.78;2.10;;;12.10;99.90;;;;;;5054907;28;20128;-72
2023/11/08 08:48:03;;;;;;;8.35;1.70;;;12.10;99.90;;;;;;5054999;28;20072;-72
2023/11/08 08:50:36;;;;;;;7.35;2.63;;;12.20;99.90;;;;;;5054491;28;20367;-72
2023/11/08 08:53:03;;;;;;;8.07;1.98;;;12.20;99.90;;;;;;5054325;28;20044;-74
2023/11/08 08:55:29;;;;;;;4.82;1.40;;;12.30;99.90;;;;;;5054501;28;20047;-72
2023/11/08 08:57:55;;;;;;;7.50;2.28;;;12.30;99.90;;;;;;5054441;28;20116;-77
2023/11/08 09:00:23;;;;;;;11.15;2.25;;;12.40;99.90;;;;;;5054221;28;20060;-73
2023/11/08 09:02:49;;;;;;;7.00;2.63;;;12.40;99.90;;;;;;5054459;28;20084;-73
2023/11/08 09:05:20;;;;;;;9.30;1.60;;;12.50;99.90;;;;;;5053533;28;20512;-73
2023/11/08 09:07:47;;;;;;;7.57;1.60;;;12.50;99.90;;;;;;5052792;28;20048;-73
2023/11/08 09:10:12;;;;;;;5.00;1.65;;;12.60;99.90;;;;;;5053941;28;20067;-73
2023/11/08 09:12:38;;;;;;;17.02;4.47;;;12.60;99.90;;;;;;5053900;28;20037;-73
2023/11/08 09:15:08;;;;;;;19.08;4.53;;;12.70;99.90;;;;;;5054081;28;20039;-72
2023/11/08 09:17:34;;;;;;;6.38;1.85;;;12.80;99.90;;;;;;5053892;28;20083;-77
2023/11/08 09:20:07;;;;;;;5.65;1.58;;;12.80;99.90;;;;;;5052566;28;20388;-78
2023/11/08 09:22:33;;;;;;;3.30;1.25;;;12.90;99.90;;;;;;5054139;28;20068;-78
2023/11/08 09:24:59;;;;;;;3.58;1.20;;;12.90;99.90;;;;;;5052728;28;20037;-75
2023/11/08 09:27:26;;;;;;;5.47;1.23;;;12.90;99.90;;;;;;5053921;28;20456;-73
2023/11/08 09:29:52;;;;;;;3.97;1.17;;;13.00;99.90;;;;;;5053717;28;20404;-77
2023/11/08 09:32:18;;;;;;;5.07;1.17;;;13.00;99.90;;;;;;5053696;28;20048;-76
2023/11/08 09:34:44;;;;;;;3.55;1.20;;;13.10;99.90;;;;;;5053734;28;20053;-76
2023/11/08 09:37:11;;;;;;;6.70;1.20;;;13.20;99.90;;;;;;5052416;28;20033;-79
2023/11/08 09:39:37;;;;;;;2.08;0.90;;;13.20;99.90;;;;;;5053360;28;20492;-79
2023/11/08 09:42:04;;;;;;;7.22;1.38;;;13.30;99.90;;;;;;5053355;28;20385;-79
2023/11/08 09:44:31;;;;;;;4.13;0.88;;;13.30;99.90;;;;;;5053834;28;20388;-77
2023/11/08 09:46:58;;;;;;;8.88;1.15;;;13.30;99.90;;;;;;5053833;28;20477;-79
2023/11/08 09:49:24;;;;;;;7.20;1.27;;;13.40;99.90;;;;;;5053760;28;20512;-79
2023/11/08 09:51:53;;;;;;;2.10;0.85;;;13.50;99.90;;;;;;5053430;28;20033;-79
2023/11/08 09:54:19;;;;;;;1.60;0.75;;;13.50;99.90;;;;;;5053646;28;20061;-79
2023/11/08 09:56:46;;;;;;;1.42;0.77;;;13.50;99.90;;;;;;5053425;28;20405;-77
2023/11/08 09:59:14;;;;;;;3.03;0.70;;;13.60;99.90;;;;;;5053311;28;20037;-78
2023/11/08 10:01:44;;;;;;;1.50;0.55;;;13.70;99.50;;;;;;5052935;28;20056;-79
2023/11/08 10:04:14;;;;;;;4.10;1.02;;;13.70;99.30;;;;;;5053277;28;20097;-79
2023/11/08 10:06:41;;;;;;;7.93;0.70;;;13.80;99.00;;;;;;5053067;28;20025;-80
2023/11/08 10:11:42;;;;;;;1.63;0.80;;;13.90;98.50;;;;;;5834677;23;20054;-78
2023/11/08 10:14:08;;;;;;;0.88;0.52;;;13.90;98.70;;;;;;5051242;23;20084;-80
2023/11/08 10:16:48;;;;;;;2.85;0.77;;;13.90;98.70;;;;;;5051860;28;20068;-79
2023/11/08 10:19:15;;;;;;;4.15;0.80;;;14.00;98.30;;;;;;5053238;28;20037;-79
2023/11/08 10:21:50;;;;;;;1.08;0.55;;;14.10;97.90;;;;;;5053205;28;20021;-79
2023/11/08 10:24:17;;;;;;;1.88;0.52;;;14.10;97.50;;;;;;5053231;28;20068;-79
2023/11/08 10:26:44;;;;;;;1.35;0.60;;;14.20;97.20;;;;;;5035029;28;20523;-79
2023/11/08 10:29:13;;;;;;;2.50;0.50;;;14.20;97.00;;;;;;5052784;28;20577;-79
2023/11/08 10:31:41;;;;;;;3.53;1.17;;;14.30;96.70;;;;;;5052697;28;20037;-77
2023/11/08 10:34:11;;;;;;;1.73;0.70;;;14.30;95.50;;;;;;5052715;28;20368;-75
2023/11/08 10:36:38;;;;;;;3.58;0.80;;;14.40;95.40;;;;;;5035218;28;20434;-77
2023/11/08 10:39:19;;;;;;;3.78;0.80;;;14.50;95.70;;;;;;5052896;28;20037;-79
2023/11/08 10:41:49;;;;;;;3.00;0.70;;;14.50;95.80;;;;;;5052764;28;20044;-78
2023/11/08 10:44:22;;;;;;;2.47;0.82;;;14.50;95.10;;;;;;5052865;28;20025;-78
2023/11/08 10:46:56;;;;;;;2.22;0.57;;;14.60;95.10;;;;;;5052816;28;20052;-77
2023/11/08 10:49:23;;;;;;;1.95;0.65;;;14.70;95.30;;;;;;5052796;28;20123;-76
2023/11/08 10:51:50;;;;;;;3.03;0.70;;;14.80;95.00;;;;;;5052695;28;20036;-74
2023/11/08 10:54:15;;;;;;;2.97;0.70;;;14.80;95.20;;;;;;5052224;28;20037;-79
2023/11/08 10:56:45;;;;;;;3.85;0.60;;;14.90;95.20;;;;;;5052199;28;20051;-78
2023/11/08 10:59:12;;;;;;;1.30;0.50;;;14.90;94.50;;;;;;5051821;28;20099;-79
2023/11/08 11:01:39;;;;;;;2.13;0.52;;;15.00;94.10;;;;;;5052531;28;20033;-78
2023/11/08 11:04:11;;;;;;;1.65;0.80;;;15.00;94.10;;;;;;5052242;28;20025;-78
2023/11/08 11:06:38;;;;;;;2.25;0.75;;;15.10;94.20;;;;;;5052195;28;20037;-75
2023/11/08 11:09:12;;;;;;;5.28;0.50;;;15.10;94.00;;;;;;5052441;28;20505;-78
2023/11/08 11:11:43;;;;;;;1.13;0.43;;;15.10;93.80;;;;;;5053199;28;20068;-76
2023/11/08 11:14:29;;;;;;;1.83;0.57;;;15.20;93.70;;;;;;5053295;28;20045;-76
2023/11/08 11:17:06;;;;;;;2.10;0.60;;;15.20;93.20;;;;;;5053057;28;20036;-76
2023/11/08 11:19:39;;;;;;;2.25;0.80;;;15.30;92.90;;;;;;5052765;28;20039;-75
2023/11/08 11:22:17;;;;;;;2.55;0.70;;;15.40;93.00;;;;;;5053049;28;20037;-76
2023/11/08 11:24:48;;;;;;;3.03;0.68;;;15.40;92.90;;;;;;5053083;28;20067;-74
2023/11/08 11:27:32;;;;;;;1.27;0.50;;;15.50;92.60;;;;;;5052636;28;20079;-74
2023/11/08 11:30:33;;;;;;;2.40;0.80;;;15.50;92.50;;;;;;5056318;28;20037;-74
2023/11/08 11:32:59;;;;;;;6.32;0.65;;;15.60;92.40;;;;;;5003830;28;20041;-73
2023/11/08 11:35:34;;;;;;;3.55;0.63;;;15.60;92.20;;;;;;5056530;28;20037;-74
2023/11/08 11:38:06;;;;;;;1.10;0.75;;;15.60;92.10;;;;;;5056276;28;20112;-75
2023/11/08 11:40:35;;;;;;;1.42;0.75;;;15.70;92.30;;;;;;5056153;28;20040;-77
2023/11/08 11:43:02;;;;;;;5.43;1.02;;;15.70;92.30;;;;;;5055522;28;20036;-73
2023/11/08 11:45:30;;;;;;;1.77;0.68;;;15.80;92.20;;;;;;5055841;28;20072;-77
2023/11/08 11:47:57;;;;;;;1.88;0.80;;;15.80;92.40;;;;;;5056311;28;20069;-77
2023/11/08 11:50:27;;;;;;;3.25;0.90;;;15.90;92.70;;;;;;5056155;28;20055;-76
2023/11/08 11:52:53;;;;;;;4.53;0.60;;;15.90;91.70;;;;;;5056227;28;20041;-76
2023/11/08 11:55:22;;;;;;;2.58;0.80;;;16.00;91.60;;;;;;5056047;28;20025;-77
2023/11/08 11:57:48;;;;;;;2.97;0.75;;;16.00;91.30;;;;;;5055829;28;20271;-76
2023/11/08 12:00:15;;;;;;;2.75;1.00;;;16.00;91.40;;;;;;5055751;28;20106;-76
2023/11/08 12:02:41;;;;;;;4.13;0.73;;;16.00;91.60;;;;;;5055510;28;20120;-78
2023/11/08 12:05:07;;;;;;;2.58;0.55;;;16.10;91.80;;;;;;5055288;28;20653;-78
2023/11/08 12:07:37;;;;;;;2.05;0.70;;;16.10;91.50;;;;;;5055991;28;20499;-77
2023/11/08 12:10:10;;;;;;;1.80;0.70;;;16.20;91.40;;;;;;5055821;28;20041;-78
2023/11/08 12:12:38;;;;;;;2.08;0.70;;;16.20;90.20;;;;;;5054956;28;20060;-77
2023/11/08 12:15:20;;;;;;;1.70;0.60;;;16.20;89.20;;;;;;5054249;28;20041;-77
2023/11/08 12:17:53;;;;;;;5.93;0.80;;;16.20;89.40;;;;;;5054045;28;20037;-77
2023/11/08 12:20:20;;;;;;;3.05;0.55;;;16.30;89.80;;;;;;5036264;28;20419;-78
2023/11/08 12:22:51;;;;;;;2.72;0.80;;;16.30;88.80;;;;;;5054127;28;20072;-75
2023/11/08 12:25:21;;;;;;;3.15;0.70;;;16.30;88.30;;;;;;5054086;28;20132;-78
2023/11/08 12:27:51;;;;;;;2.20;0.77;;;16.30;88.30;;;;;;5053946;28;20385;-78
2023/11/08 12:30:17;;;;;;;2.30;0.80;;;16.30;88.20;;;;;;5054028;28;20045;-77
2023/11/08 12:32:44;;;;;;;3.03;0.70;;;16.30;88.10;;;;;;5053867;28;20033;-79
2023/11/08 12:35:10;;;;;;;4.43;0.80;;;16.30;88.30;;;;;;5053960;28;20037;-78
2023/11/08 12:37:37;;;;;;;4.43;1.67;;;16.20;87.90;;;;;;5054094;28;20550;-79
2023/11/08 12:40:18;;;;;;;2.47;0.75;;;16.20;87.60;;;;;;5052707;28;20400;-78
2023/11/08 12:42:44;;;;;;;3.17;0.82;;;16.20;87.20;;;;;;5053333;28;20516;-77
2023/11/08 12:45:11;;;;;;;4.32;0.73;;;16.20;86.50;;;;;;5053548;28;20095;-77
2023/11/08 12:47:36;;;;;;;4.57;1.05;;;16.20;86.60;;;;;;5053309;28;20052;-77
2023/11/08 12:50:15;;;;;;;2.85;0.98;;;16.20;85.80;;;;;;5053266;28;20037;-78
2023/11/08 12:52:41;;;;;;;5.05;0.80;;;16.20;84.70;;;;;;5053422;28;20029;-76
2023/11/08 12:55:07;;;;;;;2.65;0.80;;;16.20;83.80;;;;;;5054303;28;20154;-76
2023/11/08 12:57:34;;;;;;;4.57;0.90;;;16.20;84.00;;;;;;5054372;28;20037;-77